메인 페이지
METAR-TAF:

METAR-TAF

공항 :

Arlington Municipal Airport

알링턴, 텍사스, 미국

위도: 32-39-50N, 경도: 097-05-45W, 고도: 192m

현재 날씨관측

예보는 36분 전, 10:53시(UTC)에 발표되었습니다.
남동4kt
온도 18°C
습도 88%
기압 1014 hPa
시정: 16.1km
맑음

METAR: KGKY 261053Z AUTO 14004KT 10SM CLR 18/16 A2993 RMK AO2 SLP127 T01830161 $

시각: 06:29 (11:29 UTC)

예보

예보는 2 시간 23분 전, 09:06시(UTC)에 발표되었습니다.
예보 대상 시간: 26일 09시부터 27일 06시까지 (UTC)
남동5kt
시정: 10km
맑음
26일 1600시부터 (UTC)
11kt
시정: 10km
고도 5000ft 상공 구름 보통

TAF: KGKY 260906Z 2609/2706 14005KT P6SM SKC FM261600 17011KT P6SM SCT050

4,000개 이상의 공항 관측 자료 및 예보 (METAR 및 TAF 보고).

지도상에서 검색 가능한 기상관측소가 노란 점과 빨간 점으로 표시되어 있습니다.

기상관측소 명을 보려면 표시 위로 마우스를 이동하세요.

날씨 관측과 예보를 보려면 클릭하세요.

지도 변경 : 확대하려면 엑스 표시가 있는 녹색 버튼, 축소하려면 빼기 표시가 있는 녹색 버튼, 다음 페이지의 지도를 보려면 녹색 화살표를 클릭하세요.


METAR-TAF: